sensor_id;sensor_type;location;lat;lon;timestamp;P1;durP1;ratioP1;P2;durP2;ratioP2
19519;SDS011;9904;52.246;20.898;2022-09-17T00:01:02;8.77;;;2.70;;
19519;SDS011;9904;52.246;20.898;2022-09-17T00:03:30;4.37;;;2.43;;
19519;SDS011;9904;52.246;20.898;2022-09-17T00:06:06;5.40;;;2.43;;
19519;SDS011;9904;52.246;20.898;2022-09-17T00:08:35;7.63;;;2.27;;
19519;SDS011;9904;52.246;20.898;2022-09-17T00:11:09;7.87;;;2.90;;
19519;SDS011;9904;52.246;20.898;2022-09-17T00:13:39;7.17;;;2.90;;
19519;SDS011;9904;52.246;20.898;2022-09-17T00:16:06;5.17;;;2.80;;
19519;SDS011;9904;52.246;20.898;2022-09-17T00:18:33;9.20;;;3.00;;
19519;SDS011;9904;52.246;20.898;2022-09-17T00:21:01;6.53;;;2.90;;
19519;SDS011;9904;52.246;20.898;2022-09-17T00:23:28;5.20;;;2.70;;
19519;SDS011;9904;52.246;20.898;2022-09-17T00:25:56;5.43;;;2.17;;
19519;SDS011;9904;52.246;20.898;2022-09-17T00:28:22;7.30;;;2.83;;
19519;SDS011;9904;52.246;20.898;2022-09-17T00:30:49;9.80;;;2.70;;
19519;SDS011;9904;52.246;20.898;2022-09-17T00:33:16;4.67;;;2.20;;
19519;SDS011;9904;52.246;20.898;2022-09-17T00:35:43;6.17;;;2.50;;
19519;SDS011;9904;52.246;20.898;2022-09-17T00:38:10;5.97;;;2.53;;
19519;SDS011;9904;52.246;20.898;2022-09-17T00:40:37;7.83;;;2.47;;
19519;SDS011;9904;52.246;20.898;2022-09-17T00:43:05;4.73;;;2.50;;
19519;SDS011;9904;52.246;20.898;2022-09-17T00:45:36;6.73;;;2.73;;
19519;SDS011;9904;52.246;20.898;2022-09-17T00:48:05;3.50;;;2.20;;
19519;SDS011;9904;52.246;20.898;2022-09-17T00:50:38;6.07;;;2.70;;
19519;SDS011;9904;52.246;20.898;2022-09-17T00:53:09;6.47;;;2.30;;
19519;SDS011;9904;52.246;20.898;2022-09-17T00:55:39;6.87;;;2.50;;
19519;SDS011;9904;52.246;20.898;2022-09-17T00:58:10;7.33;;;2.83;;
19519;SDS011;9904;52.246;20.898;2022-09-17T01:00:38;12.10;;;2.80;;
19519;SDS011;9904;52.246;20.898;2022-09-17T01:03:05;5.80;;;2.60;;
19519;SDS011;9904;52.246;20.898;2022-09-17T01:08:15;6.97;;;2.43;;
19519;SDS011;9904;52.246;20.898;2022-09-17T01:11:07;4.30;;;2.27;;
19519;SDS011;9904;52.246;20.898;2022-09-17T01:14:24;6.13;;;2.30;;
19519;SDS011;9904;52.246;20.898;2022-09-17T01:22:13;3.90;;;2.27;;
19519;SDS011;9904;52.246;20.898;2022-09-17T01:33:04;3.37;;;2.17;;
19519;SDS011;9904;52.246;20.898;2022-09-17T01:35:36;4.60;;;2.33;;
19519;SDS011;9904;52.246;20.898;2022-09-17T01:38:26;6.83;;;2.30;;
19519;SDS011;9904;52.246;20.898;2022-09-17T01:41:04;9.63;;;2.40;;
19519;SDS011;9904;52.246;20.898;2022-09-17T01:44:04;4.43;;;2.13;;
19519;SDS011;9904;52.246;20.898;2022-09-17T01:46:39;7.43;;;2.43;;
19519;SDS011;9904;52.246;20.898;2022-09-17T01:49:08;6.03;;;2.00;;
19519;SDS011;9904;52.246;20.898;2022-09-17T01:51:37;6.07;;;2.07;;
19519;SDS011;9904;52.246;20.898;2022-09-17T01:56:35;2.77;;;1.90;;
19519;SDS011;9904;52.246;20.898;2022-09-17T01:59:12;4.13;;;2.17;;
19519;SDS011;9904;52.246;20.898;2022-09-17T02:01:42;5.63;;;2.17;;
19519;SDS011;9904;52.246;20.898;2022-09-17T02:04:18;4.30;;;2.30;;
19519;SDS011;9904;52.246;20.898;2022-09-17T02:06:49;3.57;;;1.87;;
19519;SDS011;9904;52.246;20.898;2022-09-17T02:09:21;5.00;;;2.03;;
19519;SDS011;9904;52.246;20.898;2022-09-17T02:11:54;6.30;;;2.30;;
19519;SDS011;9904;52.246;20.898;2022-09-17T02:14:26;5.20;;;2.37;;
19519;SDS011;9904;52.246;20.898;2022-09-17T02:16:58;3.70;;;2.00;;
19519;SDS011;9904;52.246;20.898;2022-09-17T02:19:29;4.70;;;2.20;;
19519;SDS011;9904;52.246;20.898;2022-09-17T02:22:01;5.30;;;2.20;;
19519;SDS011;9904;52.246;20.898;2022-09-17T02:24:48;8.10;;;2.50;;
19519;SDS011;9904;52.246;20.898;2022-09-17T02:27:41;6.00;;;2.40;;
19519;SDS011;9904;52.246;20.898;2022-09-17T02:30:13;8.93;;;2.70;;
19519;SDS011;9904;52.246;20.898;2022-09-17T02:32:40;9.50;;;2.40;;
19519;SDS011;9904;52.246;20.898;2022-09-17T02:35:08;10.30;;;2.23;;
19519;SDS011;9904;52.246;20.898;2022-09-17T02:37:36;4.00;;;1.80;;
19519;SDS011;9904;52.246;20.898;2022-09-17T02:40:02;3.23;;;1.80;;
19519;SDS011;9904;52.246;20.898;2022-09-17T02:50:46;5.03;;;2.27;;
19519;SDS011;9904;52.246;20.898;2022-09-17T02:53:37;6.83;;;2.03;;
19519;SDS011;9904;52.246;20.898;2022-09-17T02:56:14;5.80;;;2.60;;
19519;SDS011;9904;52.246;20.898;2022-09-17T02:58:57;5.73;;;2.43;;
19519;SDS011;9904;52.246;20.898;2022-09-17T03:01:33;4.37;;;1.93;;
19519;SDS011;9904;52.246;20.898;2022-09-17T03:04:04;4.17;;;2.10;;
19519;SDS011;9904;52.246;20.898;2022-09-17T03:06:32;8.00;;;2.47;;
19519;SDS011;9904;52.246;20.898;2022-09-17T03:08:59;7.37;;;2.33;;
19519;SDS011;9904;52.246;20.898;2022-09-17T03:11:25;6.47;;;2.17;;
19519;SDS011;9904;52.246;20.898;2022-09-17T03:13:52;13.53;;;2.97;;
19519;SDS011;9904;52.246;20.898;2022-09-17T03:16:18;8.03;;;2.23;;
19519;SDS011;9904;52.246;20.898;2022-09-17T03:18:45;6.47;;;2.13;;
19519;SDS011;9904;52.246;20.898;2022-09-17T03:21:12;6.97;;;2.13;;
19519;SDS011;9904;52.246;20.898;2022-09-17T03:23:38;6.07;;;2.30;;
19519;SDS011;9904;52.246;20.898;2022-09-17T03:26:05;6.23;;;2.50;;
19519;SDS011;9904;52.246;20.898;2022-09-17T03:28:31;5.10;;;2.40;;
19519;SDS011;9904;52.246;20.898;2022-09-17T03:30:58;5.80;;;2.70;;
19519;SDS011;9904;52.246;20.898;2022-09-17T03:33:24;6.77;;;2.47;;
19519;SDS011;9904;52.246;20.898;2022-09-17T03:35:51;5.47;;;2.40;;
19519;SDS011;9904;52.246;20.898;2022-09-17T03:38:17;7.00;;;2.50;;
19519;SDS011;9904;52.246;20.898;2022-09-17T03:40:44;6.90;;;2.20;;
19519;SDS011;9904;52.246;20.898;2022-09-17T03:43:22;4.77;;;2.37;;
19519;SDS011;9904;52.246;20.898;2022-09-17T03:45:48;7.33;;;2.30;;
19519;SDS011;9904;52.246;20.898;2022-09-17T03:48:15;6.43;;;2.97;;
19519;SDS011;9904;52.246;20.898;2022-09-17T03:50:42;6.90;;;2.40;;
19519;SDS011;9904;52.246;20.898;2022-09-17T03:53:08;8.43;;;2.80;;
19519;SDS011;9904;52.246;20.898;2022-09-17T03:55:36;6.00;;;2.23;;
19519;SDS011;9904;52.246;20.898;2022-09-17T03:58:03;8.17;;;2.53;;
19519;SDS011;9904;52.246;20.898;2022-09-17T04:00:30;6.70;;;2.80;;
19519;SDS011;9904;52.246;20.898;2022-09-17T04:02:57;5.23;;;2.30;;
19519;SDS011;9904;52.246;20.898;2022-09-17T04:05:23;8.67;;;2.30;;
19519;SDS011;9904;52.246;20.898;2022-09-17T04:07:50;8.73;;;2.30;;
19519;SDS011;9904;52.246;20.898;2022-09-17T04:10:16;4.17;;;2.33;;
19519;SDS011;9904;52.246;20.898;2022-09-17T04:12:43;7.80;;;2.60;;
19519;SDS011;9904;52.246;20.898;2022-09-17T04:15:10;9.77;;;2.80;;
19519;SDS011;9904;52.246;20.898;2022-09-17T04:17:36;7.00;;;2.97;;
19519;SDS011;9904;52.246;20.898;2022-09-17T04:20:03;6.20;;;1.87;;
19519;SDS011;9904;52.246;20.898;2022-09-17T04:22:31;7.50;;;2.77;;
19519;SDS011;9904;52.246;20.898;2022-09-17T04:24:57;7.27;;;3.00;;
19519;SDS011;9904;52.246;20.898;2022-09-17T04:27:24;6.67;;;2.47;;
19519;SDS011;9904;52.246;20.898;2022-09-17T04:29:51;8.67;;;2.37;;
19519;SDS011;9904;52.246;20.898;2022-09-17T04:32:17;6.20;;;2.37;;
19519;SDS011;9904;52.246;20.898;2022-09-17T04:34:44;4.80;;;2.57;;
19519;SDS011;9904;52.246;20.898;2022-09-17T04:37:10;7.07;;;3.10;;
19519;SDS011;9904;52.246;20.898;2022-09-17T04:39:37;4.00;;;2.50;;
19519;SDS011;9904;52.246;20.898;2022-09-17T04:42:03;6.17;;;2.20;;
19519;SDS011;9904;52.246;20.898;2022-09-17T04:44:30;4.20;;;2.57;;
19519;SDS011;9904;52.246;20.898;2022-09-17T04:46:57;6.83;;;2.87;;
19519;SDS011;9904;52.246;20.898;2022-09-17T04:49:24;10.43;;;2.70;;
19519;SDS011;9904;52.246;20.898;2022-09-17T04:51:54;7.03;;;2.63;;
19519;SDS011;9904;52.246;20.898;2022-09-17T04:54:21;11.23;;;3.30;;
19519;SDS011;9904;52.246;20.898;2022-09-17T04:56:47;5.40;;;2.87;;
19519;SDS011;9904;52.246;20.898;2022-09-17T04:59:14;4.40;;;2.23;;
19519;SDS011;9904;52.246;20.898;2022-09-17T05:01:40;10.27;;;2.87;;
19519;SDS011;9904;52.246;20.898;2022-09-17T05:04:08;4.97;;;2.70;;
19519;SDS011;9904;52.246;20.898;2022-09-17T05:06:35;8.83;;;3.00;;
19519;SDS011;9904;52.246;20.898;2022-09-17T05:09:02;4.77;;;2.43;;
19519;SDS011;9904;52.246;20.898;2022-09-17T05:11:28;9.10;;;2.90;;
19519;SDS011;9904;52.246;20.898;2022-09-17T05:13:55;8.57;;;2.97;;
19519;SDS011;9904;52.246;20.898;2022-09-17T05:16:22;4.07;;;2.50;;
19519;SDS011;9904;52.246;20.898;2022-09-17T05:18:48;4.73;;;3.10;;
19519;SDS011;9904;52.246;20.898;2022-09-17T05:21:17;8.47;;;2.97;;
19519;SDS011;9904;52.246;20.898;2022-09-17T05:23:44;8.03;;;2.60;;
19519;SDS011;9904;52.246;20.898;2022-09-17T05:26:10;4.47;;;2.67;;
19519;SDS011;9904;52.246;20.898;2022-09-17T05:28:37;7.93;;;2.80;;
19519;SDS011;9904;52.246;20.898;2022-09-17T05:31:03;6.07;;;2.80;;
19519;SDS011;9904;52.246;20.898;2022-09-17T05:33:30;9.70;;;3.27;;
19519;SDS011;9904;52.246;20.898;2022-09-17T05:35:57;4.93;;;2.50;;
19519;SDS011;9904;52.246;20.898;2022-09-17T05:38:24;5.40;;;2.73;;
19519;SDS011;9904;52.246;20.898;2022-09-17T05:40:51;9.07;;;2.50;;
19519;SDS011;9904;52.246;20.898;2022-09-17T05:43:18;4.73;;;2.10;;
19519;SDS011;9904;52.246;20.898;2022-09-17T05:45:44;10.13;;;1.93;;
19519;SDS011;9904;52.246;20.898;2022-09-17T05:48:12;9.43;;;2.10;;
19519;SDS011;9904;52.246;20.898;2022-09-17T05:50:39;5.53;;;2.23;;
19519;SDS011;9904;52.246;20.898;2022-09-17T05:53:08;6.83;;;2.30;;
19519;SDS011;9904;52.246;20.898;2022-09-17T05:55:37;6.63;;;2.50;;
19519;SDS011;9904;52.246;20.898;2022-09-17T05:58:14;9.30;;;2.70;;
19519;SDS011;9904;52.246;20.898;2022-09-17T06:00:42;7.07;;;2.43;;
19519;SDS011;9904;52.246;20.898;2022-09-17T06:03:09;8.00;;;2.60;;
19519;SDS011;9904;52.246;20.898;2022-09-17T06:05:37;6.67;;;1.87;;
19519;SDS011;9904;52.246;20.898;2022-09-17T06:08:03;4.67;;;2.00;;
19519;SDS011;9904;52.246;20.898;2022-09-17T06:10:31;8.90;;;3.33;;
19519;SDS011;9904;52.246;20.898;2022-09-17T06:12:58;4.50;;;2.07;;
19519;SDS011;9904;52.246;20.898;2022-09-17T06:15:25;7.87;;;2.17;;
19519;SDS011;9904;52.246;20.898;2022-09-17T06:17:52;6.93;;;1.97;;
19519;SDS011;9904;52.246;20.898;2022-09-17T06:20:19;5.23;;;1.70;;
19519;SDS011;9904;52.246;20.898;2022-09-17T06:22:45;8.43;;;1.83;;
19519;SDS011;9904;52.246;20.898;2022-09-17T06:25:12;4.40;;;1.90;;
19519;SDS011;9904;52.246;20.898;2022-09-17T06:27:39;4.60;;;1.57;;
19519;SDS011;9904;52.246;20.898;2022-09-17T06:30:05;12.63;;;2.03;;
19519;SDS011;9904;52.246;20.898;2022-09-17T06:32:32;6.70;;;1.73;;
19519;SDS011;9904;52.246;20.898;2022-09-17T06:34:59;3.13;;;1.60;;
19519;SDS011;9904;52.246;20.898;2022-09-17T06:37:27;4.47;;;1.80;;
19519;SDS011;9904;52.246;20.898;2022-09-17T06:39:54;4.90;;;1.80;;
19519;SDS011;9904;52.246;20.898;2022-09-17T06:42:21;7.13;;;1.73;;
19519;SDS011;9904;52.246;20.898;2022-09-17T06:44:48;3.87;;;1.67;;
19519;SDS011;9904;52.246;20.898;2022-09-17T06:47:14;7.63;;;1.90;;
19519;SDS011;9904;52.246;20.898;2022-09-17T06:49:41;6.53;;;1.80;;
19519;SDS011;9904;52.246;20.898;2022-09-17T06:52:07;7.77;;;1.73;;
19519;SDS011;9904;52.246;20.898;2022-09-17T06:54:34;10.67;;;2.93;;
19519;SDS011;9904;52.246;20.898;2022-09-17T06:57:00;5.27;;;1.80;;
19519;SDS011;9904;52.246;20.898;2022-09-17T06:59:27;5.40;;;1.70;;
19519;SDS011;9904;52.246;20.898;2022-09-17T07:01:53;5.93;;;1.53;;
19519;SDS011;9904;52.246;20.898;2022-09-17T07:04:20;4.73;;;1.73;;
19519;SDS011;9904;52.246;20.898;2022-09-17T07:06:46;4.30;;;1.70;;
19519;SDS011;9904;52.246;20.898;2022-09-17T07:09:13;5.10;;;1.57;;
19519;SDS011;9904;52.246;20.898;2022-09-17T07:11:39;7.60;;;1.50;;
19519;SDS011;9904;52.246;20.898;2022-09-17T07:14:06;8.70;;;2.10;;
19519;SDS011;9904;52.246;20.898;2022-09-17T07:16:33;7.80;;;1.93;;
19519;SDS011;9904;52.246;20.898;2022-09-17T07:19:02;7.73;;;1.93;;
19519;SDS011;9904;52.246;20.898;2022-09-17T07:21:29;4.77;;;2.03;;
19519;SDS011;9904;52.246;20.898;2022-09-17T07:23:56;6.63;;;2.40;;
19519;SDS011;9904;52.246;20.898;2022-09-17T07:26:23;6.07;;;2.87;;
19519;SDS011;9904;52.246;20.898;2022-09-17T07:28:49;4.97;;;2.20;;
19519;SDS011;9904;52.246;20.898;2022-09-17T07:31:16;4.03;;;2.67;;
19519;SDS011;9904;52.246;20.898;2022-09-17T07:33:42;7.37;;;2.23;;
19519;SDS011;9904;52.246;20.898;2022-09-17T07:36:10;6.57;;;2.93;;
19519;SDS011;9904;52.246;20.898;2022-09-17T07:38:37;6.60;;;2.63;;
19519;SDS011;9904;52.246;20.898;2022-09-17T07:41:14;7.50;;;2.13;;
19519;SDS011;9904;52.246;20.898;2022-09-17T07:43:41;5.30;;;2.40;;
19519;SDS011;9904;52.246;20.898;2022-09-17T07:46:15;7.07;;;2.50;;
19519;SDS011;9904;52.246;20.898;2022-09-17T07:48:43;5.00;;;2.20;;
19519;SDS011;9904;52.246;20.898;2022-09-17T07:51:20;6.93;;;2.33;;
19519;SDS011;9904;52.246;20.898;2022-09-17T07:53:51;9.37;;;2.33;;
19519;SDS011;9904;52.246;20.898;2022-09-17T07:56:21;8.13;;;2.60;;
19519;SDS011;9904;52.246;20.898;2022-09-17T07:58:48;9.97;;;3.37;;
19519;SDS011;9904;52.246;20.898;2022-09-17T08:01:15;8.60;;;3.00;;
19519;SDS011;9904;52.246;20.898;2022-09-17T08:03:42;6.93;;;2.57;;
19519;SDS011;9904;52.246;20.898;2022-09-17T08:06:14;9.00;;;2.77;;
19519;SDS011;9904;52.246;20.898;2022-09-17T08:08:42;10.33;;;2.83;;
19519;SDS011;9904;52.246;20.898;2022-09-17T08:11:16;5.53;;;2.50;;
19519;SDS011;9904;52.246;20.898;2022-09-17T08:14:04;8.33;;;2.10;;
19519;SDS011;9904;52.246;20.898;2022-09-17T08:16:31;11.23;;;2.40;;
19519;SDS011;9904;52.246;20.898;2022-09-17T08:18:58;6.40;;;2.40;;
19519;SDS011;9904;52.246;20.898;2022-09-17T08:21:24;5.73;;;2.20;;
19519;SDS011;9904;52.246;20.898;2022-09-17T08:23:50;5.53;;;2.10;;
19519;SDS011;9904;52.246;20.898;2022-09-17T08:26:18;7.70;;;2.30;;
19519;SDS011;9904;52.246;20.898;2022-09-17T08:28:48;5.23;;;2.07;;
19519;SDS011;9904;52.246;20.898;2022-09-17T08:31:21;11.03;;;2.50;;
19519;SDS011;9904;52.246;20.898;2022-09-17T08:33:48;6.13;;;2.60;;
19519;SDS011;9904;52.246;20.898;2022-09-17T08:36:16;4.83;;;2.20;;
19519;SDS011;9904;52.246;20.898;2022-09-17T08:38:44;6.97;;;2.40;;
19519;SDS011;9904;52.246;20.898;2022-09-17T08:46:16;7.70;;;2.20;;
19519;SDS011;9904;52.246;20.898;2022-09-17T08:54:48;5.13;;;1.73;;
19519;SDS011;9904;52.246;20.898;2022-09-17T08:57:33;3.10;;;1.43;;
19519;SDS011;9904;52.246;20.898;2022-09-17T09:00:15;6.00;;;1.83;;
19519;SDS011;9904;52.246;20.898;2022-09-17T09:02:48;6.97;;;2.37;;
19519;SDS011;9904;52.246;20.898;2022-09-17T09:05:22;9.67;;;1.83;;
19519;SDS011;9904;52.246;20.898;2022-09-17T09:08:00;4.80;;;1.80;;
19519;SDS011;9904;52.246;20.898;2022-09-17T09:11:04;5.03;;;1.70;;
19519;SDS011;9904;52.246;20.898;2022-09-17T09:13:24;4.57;;;1.70;;
19519;SDS011;9904;52.246;20.898;2022-09-17T09:16:02;4.37;;;1.40;;
19519;SDS011;9904;52.246;20.898;2022-09-17T09:18:34;5.40;;;1.60;;
19519;SDS011;9904;52.246;20.898;2022-09-17T09:21:07;5.30;;;1.73;;
19519;SDS011;9904;52.246;20.898;2022-09-17T09:26:36;4.27;;;1.40;;
19519;SDS011;9904;52.246;20.898;2022-09-17T09:31:59;4.23;;;1.50;;
19519;SDS011;9904;52.246;20.898;2022-09-17T09:34:41;3.50;;;1.57;;
19519;SDS011;9904;52.246;20.898;2022-09-17T09:37:20;4.43;;;1.70;;
19519;SDS011;9904;52.246;20.898;2022-09-17T09:39:50;3.70;;;1.70;;
19519;SDS011;9904;52.246;20.898;2022-09-17T09:45:02;4.07;;;1.70;;
19519;SDS011;9904;52.246;20.898;2022-09-17T09:47:59;4.23;;;1.50;;
19519;SDS011;9904;52.246;20.898;2022-09-17T09:50:42;3.40;;;1.50;;
19519;SDS011;9904;52.246;20.898;2022-09-17T09:53:38;3.00;;;1.37;;
19519;SDS011;9904;52.246;20.898;2022-09-17T09:56:32;3.83;;;1.47;;
19519;SDS011;9904;52.246;20.898;2022-09-17T09:59:09;4.60;;;1.70;;
19519;SDS011;9904;52.246;20.898;2022-09-17T10:01:39;5.23;;;1.27;;
19519;SDS011;9904;52.246;20.898;2022-09-17T10:06:48;4.03;;;1.10;;
19519;SDS011;9904;52.246;20.898;2022-09-17T10:09:17;5.80;;;1.80;;
19519;SDS011;9904;52.246;20.898;2022-09-17T10:14:36;3.33;;;1.23;;
19519;SDS011;9904;52.246;20.898;2022-09-17T10:24:58;2.50;;;1.47;;
19519;SDS011;9904;52.246;20.898;2022-09-17T10:27:27;2.13;;;1.53;;
19519;SDS011;9904;52.246;20.898;2022-09-17T10:30:02;2.57;;;1.13;;
19519;SDS011;9904;52.246;20.898;2022-09-17T10:32:34;20.47;;;8.17;;
19519;SDS011;9904;52.246;20.898;2022-09-17T10:35:03;5.90;;;1.50;;
19519;SDS011;9904;52.246;20.898;2022-09-17T10:37:40;1.10;;;0.87;;
19519;SDS011;9904;52.246;20.898;2022-09-17T10:42:48;1.47;;;0.80;;
19519;SDS011;9904;52.246;20.898;2022-09-17T10:45:25;2.30;;;0.87;;
19519;SDS011;9904;52.246;20.898;2022-09-17T10:47:57;3.03;;;0.80;;
19519;SDS011;9904;52.246;20.898;2022-09-17T10:50:28;2.37;;;1.07;;
19519;SDS011;9904;52.246;20.898;2022-09-17T10:52:57;3.30;;;1.00;;
19519;SDS011;9904;52.246;20.898;2022-09-17T10:55:34;1.93;;;1.07;;
19519;SDS011;9904;52.246;20.898;2022-09-17T11:00:41;4.53;;;1.17;;
19519;SDS011;9904;52.246;20.898;2022-09-17T11:03:27;3.93;;;1.23;;
19519;SDS011;9904;52.246;20.898;2022-09-17T11:06:08;2.63;;;1.63;;
19519;SDS011;9904;52.246;20.898;2022-09-17T11:08:45;4.03;;;1.40;;
19519;SDS011;9904;52.246;20.898;2022-09-17T11:11:23;7.07;;;1.67;;
19519;SDS011;9904;52.246;20.898;2022-09-17T11:28:32;2.93;;;1.13;;
19519;SDS011;9904;52.246;20.898;2022-09-17T11:31:17;3.17;;;1.37;;
19519;SDS011;9904;52.246;20.898;2022-09-17T11:39:21;3.00;;;1.20;;
19519;SDS011;9904;52.246;20.898;2022-09-17T11:41:52;5.50;;;1.37;;
19519;SDS011;9904;52.246;20.898;2022-09-17T11:44:25;2.13;;;1.50;;
19519;SDS011;9904;52.246;20.898;2022-09-17T11:46:58;6.53;;;1.80;;
19519;SDS011;9904;52.246;20.898;2022-09-17T11:52:10;3.90;;;1.60;;
19519;SDS011;9904;52.246;20.898;2022-09-17T11:54:46;5.33;;;1.40;;
19519;SDS011;9904;52.246;20.898;2022-09-17T11:57:30;3.43;;;1.60;;
19519;SDS011;9904;52.246;20.898;2022-09-17T12:00:03;10.33;;;2.93;;
19519;SDS011;9904;52.246;20.898;2022-09-17T12:05:42;2.50;;;1.30;;
19519;SDS011;9904;52.246;20.898;2022-09-17T12:08:24;2.83;;;1.20;;
19519;SDS011;9904;52.246;20.898;2022-09-17T12:11:05;2.43;;;1.27;;
19519;SDS011;9904;52.246;20.898;2022-09-17T12:13:39;1.90;;;1.10;;
19519;SDS011;9904;52.246;20.898;2022-09-17T12:16:20;2.50;;;1.47;;
19519;SDS011;9904;52.246;20.898;2022-09-17T12:18:51;2.80;;;1.40;;
19519;SDS011;9904;52.246;20.898;2022-09-17T12:22:00;2.00;;;1.20;;
19519;SDS011;9904;52.246;20.898;2022-09-17T12:24:29;6.43;;;1.53;;
19519;SDS011;9904;52.246;20.898;2022-09-17T12:27:14;2.87;;;1.50;;
19519;SDS011;9904;52.246;20.898;2022-09-17T12:29:46;1.67;;;1.23;;
19519;SDS011;9904;52.246;20.898;2022-09-17T12:32:37;5.13;;;1.80;;
19519;SDS011;9904;52.246;20.898;2022-09-17T12:46:39;4.13;;;2.10;;
19519;SDS011;9904;52.246;20.898;2022-09-17T12:49:21;4.03;;;1.70;;
19519;SDS011;9904;52.246;20.898;2022-09-17T12:52:34;4.10;;;2.50;;
19519;SDS011;9904;52.246;20.898;2022-09-17T12:58:57;5.67;;;1.70;;
19519;SDS011;9904;52.246;20.898;2022-09-17T13:01:34;2.27;;;1.77;;
19519;SDS011;9904;52.246;20.898;2022-09-17T13:04:39;7.83;;;1.70;;
19519;SDS011;9904;52.246;20.898;2022-09-17T13:07:41;2.20;;;1.60;;
19519;SDS011;9904;52.246;20.898;2022-09-17T13:16:10;3.80;;;1.60;;
19519;SDS011;9904;52.246;20.898;2022-09-17T13:18:47;3.60;;;2.03;;
19519;SDS011;9904;52.246;20.898;2022-09-17T13:24:28;7.07;;;2.30;;
19519;SDS011;9904;52.246;20.898;2022-09-17T13:26:58;3.23;;;1.80;;
19519;SDS011;9904;52.246;20.898;2022-09-17T13:32:08;4.10;;;1.90;;
19519;SDS011;9904;52.246;20.898;2022-09-17T13:34:43;4.77;;;1.90;;
19519;SDS011;9904;52.246;20.898;2022-09-17T13:37:18;2.70;;;1.60;;
19519;SDS011;9904;52.246;20.898;2022-09-17T13:39:46;6.00;;;2.03;;
19519;SDS011;9904;52.246;20.898;2022-09-17T13:42:23;5.23;;;2.50;;
19519;SDS011;9904;52.246;20.898;2022-09-17T13:45:02;5.27;;;2.73;;
19519;SDS011;9904;52.246;20.898;2022-09-17T13:47:51;7.00;;;2.37;;
19519;SDS011;9904;52.246;20.898;2022-09-17T13:50:38;4.40;;;2.30;;
19519;SDS011;9904;52.246;20.898;2022-09-17T13:53:07;6.17;;;2.13;;
19519;SDS011;9904;52.246;20.898;2022-09-17T13:55:46;4.07;;;2.00;;
19519;SDS011;9904;52.246;20.898;2022-09-17T14:05:53;3.80;;;1.57;;
19519;SDS011;9904;52.246;20.898;2022-09-17T14:08:24;3.33;;;2.00;;
19519;SDS011;9904;52.246;20.898;2022-09-17T14:21:31;4.30;;;2.43;;
19519;SDS011;9904;52.246;20.898;2022-09-17T14:24:18;4.87;;;2.30;;
19519;SDS011;9904;52.246;20.898;2022-09-17T14:32:24;4.67;;;2.83;;
19519;SDS011;9904;52.246;20.898;2022-09-17T14:35:03;5.77;;;2.80;;
19519;SDS011;9904;52.246;20.898;2022-09-17T14:37:46;6.23;;;3.50;;
19519;SDS011;9904;52.246;20.898;2022-09-17T14:40:17;6.30;;;2.80;;
19519;SDS011;9904;52.246;20.898;2022-09-17T14:42:45;5.63;;;3.30;;
19519;SDS011;9904;52.246;20.898;2022-09-17T14:45:18;6.43;;;3.73;;
19519;SDS011;9904;52.246;20.898;2022-09-17T14:48:15;6.10;;;2.90;;
19519;SDS011;9904;52.246;20.898;2022-09-17T14:50:50;5.40;;;3.30;;
19519;SDS011;9904;52.246;20.898;2022-09-17T14:53:17;4.83;;;2.70;;
19519;SDS011;9904;52.246;20.898;2022-09-17T14:55:48;5.87;;;3.70;;
19519;SDS011;9904;52.246;20.898;2022-09-17T14:58:26;4.57;;;3.00;;
19519;SDS011;9904;52.246;20.898;2022-09-17T15:00:57;7.53;;;3.23;;
19519;SDS011;9904;52.246;20.898;2022-09-17T15:03:24;7.03;;;3.07;;
19519;SDS011;9904;52.246;20.898;2022-09-17T15:05:50;8.83;;;3.70;;
19519;SDS011;9904;52.246;20.898;2022-09-17T15:08:18;6.07;;;3.77;;
19519;SDS011;9904;52.246;20.898;2022-09-17T15:10:56;7.27;;;3.43;;
19519;SDS011;9904;52.246;20.898;2022-09-17T15:13:29;6.83;;;2.90;;
19519;SDS011;9904;52.246;20.898;2022-09-17T15:15:58;4.67;;;3.40;;
19519;SDS011;9904;52.246;20.898;2022-09-17T15:18:35;6.20;;;3.43;;
19519;SDS011;9904;52.246;20.898;2022-09-17T15:21:05;4.87;;;3.27;;
19519;SDS011;9904;52.246;20.898;2022-09-17T15:23:40;6.57;;;3.90;;
19519;SDS011;9904;52.246;20.898;2022-09-17T15:26:07;8.30;;;3.67;;
19519;SDS011;9904;52.246;20.898;2022-09-17T15:28:41;8.93;;;4.03;;
19519;SDS011;9904;52.246;20.898;2022-09-17T15:31:13;8.80;;;4.50;;
19519;SDS011;9904;52.246;20.898;2022-09-17T15:33:43;9.47;;;5.03;;
19519;SDS011;9904;52.246;20.898;2022-09-17T15:38:42;6.90;;;4.87;;
19519;SDS011;9904;52.246;20.898;2022-09-17T15:41:19;8.30;;;4.60;;
19519;SDS011;9904;52.246;20.898;2022-09-17T15:43:47;11.80;;;5.00;;
19519;SDS011;9904;52.246;20.898;2022-09-17T15:46:25;7.00;;;4.10;;
19519;SDS011;9904;52.246;20.898;2022-09-17T15:48:53;7.43;;;4.13;;
19519;SDS011;9904;52.246;20.898;2022-09-17T15:54:00;9.00;;;4.40;;
19519;SDS011;9904;52.246;20.898;2022-09-17T15:56:30;10.93;;;4.60;;
19519;SDS011;9904;52.246;20.898;2022-09-17T15:59:02;5.60;;;4.37;;
19519;SDS011;9904;52.246;20.898;2022-09-17T16:08:54;7.30;;;3.33;;
19519;SDS011;9904;52.246;20.898;2022-09-17T16:11:23;6.20;;;3.70;;
19519;SDS011;9904;52.246;20.898;2022-09-17T16:13:59;6.37;;;3.73;;
19519;SDS011;9904;52.246;20.898;2022-09-17T16:16:33;10.33;;;4.30;;
19519;SDS011;9904;52.246;20.898;2022-09-17T16:19:01;7.03;;;4.33;;
19519;SDS011;9904;52.246;20.898;2022-09-17T16:21:28;7.47;;;4.50;;
19519;SDS011;9904;52.246;20.898;2022-09-17T16:23:54;7.27;;;4.40;;
19519;SDS011;9904;52.246;20.898;2022-09-17T16:26:24;10.37;;;4.83;;
19519;SDS011;9904;52.246;20.898;2022-09-17T16:28:58;8.43;;;5.20;;
19519;SDS011;9904;52.246;20.898;2022-09-17T16:31:29;7.20;;;4.70;;
19519;SDS011;9904;52.246;20.898;2022-09-17T16:33:57;9.73;;;6.00;;
19519;SDS011;9904;52.246;20.898;2022-09-17T16:36:24;9.00;;;5.87;;
19519;SDS011;9904;52.246;20.898;2022-09-17T16:38:50;9.23;;;5.40;;
19519;SDS011;9904;52.246;20.898;2022-09-17T16:41:17;9.00;;;5.37;;
19519;SDS011;9904;52.246;20.898;2022-09-17T16:43:44;9.20;;;5.00;;
19519;SDS011;9904;52.246;20.898;2022-09-17T16:46:11;8.67;;;5.57;;
19519;SDS011;9904;52.246;20.898;2022-09-17T16:48:37;12.47;;;6.20;;
19519;SDS011;9904;52.246;20.898;2022-09-17T16:51:07;11.63;;;6.00;;
19519;SDS011;9904;52.246;20.898;2022-09-17T16:53:34;10.40;;;6.60;;
19519;SDS011;9904;52.246;20.898;2022-09-17T16:56:04;9.37;;;6.03;;
19519;SDS011;9904;52.246;20.898;2022-09-17T16:58:32;13.70;;;7.60;;
19519;SDS011;9904;52.246;20.898;2022-09-17T17:01:04;12.53;;;7.37;;
19519;SDS011;9904;52.246;20.898;2022-09-17T17:03:32;15.03;;;8.07;;
19519;SDS011;9904;52.246;20.898;2022-09-17T17:05:58;10.77;;;7.23;;
19519;SDS011;9904;52.246;20.898;2022-09-17T17:08:25;13.30;;;7.00;;
19519;SDS011;9904;52.246;20.898;2022-09-17T17:10:51;15.13;;;6.80;;
19519;SDS011;9904;52.246;20.898;2022-09-17T17:13:18;12.83;;;7.00;;
19519;SDS011;9904;52.246;20.898;2022-09-17T17:15:44;13.73;;;6.20;;
19519;SDS011;9904;52.246;20.898;2022-09-17T17:18:11;10.87;;;5.93;;
19519;SDS011;9904;52.246;20.898;2022-09-17T17:20:37;16.17;;;6.00;;
19519;SDS011;9904;52.246;20.898;2022-09-17T17:23:04;10.63;;;6.47;;
19519;SDS011;9904;52.246;20.898;2022-09-17T17:25:30;10.70;;;6.13;;
19519;SDS011;9904;52.246;20.898;2022-09-17T17:27:57;10.10;;;5.83;;
19519;SDS011;9904;52.246;20.898;2022-09-17T17:30:24;9.83;;;6.17;;
19519;SDS011;9904;52.246;20.898;2022-09-17T17:32:51;11.57;;;6.67;;
19519;SDS011;9904;52.246;20.898;2022-09-17T17:35:18;10.43;;;6.27;;
19519;SDS011;9904;52.246;20.898;2022-09-17T17:37:45;11.53;;;6.80;;
19519;SDS011;9904;52.246;20.898;2022-09-17T17:40:13;11.10;;;6.60;;
19519;SDS011;9904;52.246;20.898;2022-09-17T17:42:39;12.13;;;6.47;;
19519;SDS011;9904;52.246;20.898;2022-09-17T17:45:09;13.90;;;7.40;;